createdAt,value
2022-09-14T00:01:28.579Z,11.07
2022-09-14T00:03:59.418Z,10.65
2022-09-14T00:06:27.789Z,11.10
2022-09-14T00:08:56.300Z,11.05
2022-09-14T00:11:25.938Z,11.10
2022-09-14T00:13:54.093Z,11.00
2022-09-14T00:16:25.647Z,10.68
2022-09-14T00:18:56.395Z,10.45
2022-09-14T00:21:24.381Z,10.57
2022-09-14T00:23:51.357Z,10.65
2022-09-14T00:26:21.272Z,10.27
2022-09-14T00:28:55.618Z,10.40
2022-09-14T00:31:24.010Z,10.02
2022-09-14T00:33:52.613Z,10.57
2022-09-14T00:36:29.356Z,10.38
2022-09-14T00:38:57.260Z,10.43
2022-09-14T00:41:32.532Z,11.23
2022-09-14T00:44:11.055Z,10.10
2022-09-14T00:46:46.074Z,11.20
2022-09-14T00:49:22.641Z,10.60
2022-09-14T00:52:04.010Z,11.70
2022-09-14T00:54:31.814Z,10.73
2022-09-14T00:57:02.691Z,10.05
2022-09-14T00:59:33.656Z,10.73
2022-09-14T01:02:00.854Z,10.52
2022-09-14T01:04:27.834Z,9.93
2022-09-14T01:07:43.164Z,9.70
2022-09-14T01:10:47.121Z,10.15
2022-09-14T01:13:56.345Z,9.52
2022-09-14T01:16:44.357Z,9.00
2022-09-14T01:19:41.262Z,8.93
2022-09-14T01:22:18.881Z,9.68
2022-09-14T01:24:59.946Z,9.52
2022-09-14T01:27:46.764Z,9.50
2022-09-14T01:30:24.476Z,9.38
2022-09-14T01:33:02.122Z,9.93
2022-09-14T01:36:03.103Z,10.20
2022-09-14T01:39:00.027Z,8.88
2022-09-14T01:41:31.382Z,9.38
2022-09-14T01:44:07.992Z,9.43
2022-09-14T01:46:45.146Z,8.30
2022-09-14T01:49:17.115Z,9.43
2022-09-14T01:51:49.449Z,9.02
2022-09-14T01:54:18.404Z,8.55
2022-09-14T01:56:54.057Z,9.45
2022-09-14T01:59:29.378Z,8.07
2022-09-14T02:02:04.900Z,8.73
2022-09-14T02:05:01.664Z,8.43
2022-09-14T02:07:29.128Z,7.75
2022-09-14T02:09:56.805Z,8.55
2022-09-14T02:12:24.381Z,8.13
2022-09-14T02:14:53.830Z,8.07
2022-09-14T02:17:21.759Z,8.20
2022-09-14T02:19:59.594Z,7.63
2022-09-14T02:22:29.537Z,7.68
2022-09-14T02:24:57.123Z,7.05
2022-09-14T02:27:25.213Z,7.05
2022-09-14T02:29:53.136Z,6.82
2022-09-14T02:33:08.490Z,6.47
2022-09-14T02:35:51.349Z,6.63
2022-09-14T02:38:56.954Z,6.53
2022-09-14T02:41:50.479Z,6.32
2022-09-14T02:45:04.582Z,5.97
2022-09-14T02:47:55.342Z,5.60
2022-09-14T02:50:31.039Z,6.38
2022-09-14T02:53:14.303Z,5.93
2022-09-14T02:56:11.177Z,6.13
2022-09-14T02:58:42.198Z,5.88
2022-09-14T03:01:15.052Z,6.00
2022-09-14T03:03:42.115Z,5.93
2022-09-14T03:06:09.822Z,6.38
2022-09-14T03:08:36.870Z,5.82
2022-09-14T03:11:04.151Z,5.55
2022-09-14T03:13:31.048Z,5.60
2022-09-14T03:15:57.998Z,5.88
2022-09-14T03:18:25.058Z,5.07
2022-09-14T03:20:51.933Z,5.50
2022-09-14T03:23:18.865Z,5.88
2022-09-14T03:25:46.132Z,6.47
2022-09-14T03:28:13.124Z,5.80
2022-09-14T03:30:40.073Z,5.38
2022-09-14T03:33:07.207Z,6.35
2022-09-14T03:35:34.770Z,6.47
2022-09-14T03:38:03.286Z,6.07
2022-09-14T03:40:30.767Z,6.50
2022-09-14T03:42:58.013Z,6.25
2022-09-14T03:45:24.993Z,5.53
2022-09-14T03:47:51.929Z,5.82
2022-09-14T03:50:19.924Z,6.65
2022-09-14T03:52:47.634Z,6.63
2022-09-14T03:55:14.828Z,6.63
2022-09-14T03:57:41.758Z,7.50
2022-09-14T04:00:10.238Z,7.43
2022-09-14T04:02:37.369Z,8.05
2022-09-14T04:05:04.693Z,8.05
2022-09-14T04:07:33.459Z,8.38
2022-09-14T04:10:00.345Z,9.07
2022-09-14T04:12:27.248Z,9.05
2022-09-14T04:14:54.109Z,9.13
2022-09-14T04:17:20.980Z,9.48
2022-09-14T04:19:47.898Z,9.38
2022-09-14T04:22:14.835Z,9.23
2022-09-14T04:24:41.733Z,10.77
2022-09-14T04:27:08.604Z,9.40
2022-09-14T04:29:35.492Z,10.93
2022-09-14T04:32:03.615Z,10.50
2022-09-14T04:34:30.539Z,11.30
2022-09-14T04:36:57.399Z,10.63
2022-09-14T04:39:24.299Z,11.40
2022-09-14T04:41:51.226Z,10.82
2022-09-14T04:44:18.113Z,11.50
2022-09-14T04:46:46.881Z,11.25
2022-09-14T04:49:16.601Z,12.10
2022-09-14T04:51:43.584Z,11.50
2022-09-14T04:54:15.539Z,12.18
2022-09-14T04:56:43.077Z,11.23
2022-09-14T04:59:10.902Z,11.57
2022-09-14T05:01:44.720Z,12.70
2022-09-14T05:04:12.446Z,12.52
2022-09-14T05:06:41.916Z,13.40
2022-09-14T05:09:16.026Z,12.60
2022-09-14T05:11:43.452Z,13.30
2022-09-14T05:14:13.440Z,13.10
2022-09-14T05:16:42.892Z,12.30
2022-09-14T05:19:18.321Z,12.57
2022-09-14T05:21:47.042Z,15.00
2022-09-14T05:24:18.836Z,14.10
2022-09-14T05:26:46.889Z,14.32
2022-09-14T05:29:17.552Z,14.23
2022-09-14T05:31:44.831Z,14.07
2022-09-14T05:34:12.484Z,15.10
2022-09-14T05:36:40.159Z,15.50
2022-09-14T05:39:08.707Z,15.40
2022-09-14T05:41:35.650Z,15.75
2022-09-14T05:44:02.914Z,16.45
2022-09-14T05:46:29.838Z,16.67
2022-09-14T05:48:56.783Z,17.35
2022-09-14T05:51:26.429Z,17.20
2022-09-14T05:53:58.540Z,17.48
2022-09-14T05:56:29.455Z,16.85
2022-09-14T05:58:56.471Z,17.77
2022-09-14T06:01:27.548Z,17.02
2022-09-14T06:03:56.911Z,18.20
2022-09-14T06:06:24.555Z,18.20
2022-09-14T06:08:54.211Z,16.90
2022-09-14T06:11:28.610Z,18.48
2022-09-14T06:13:56.938Z,18.33
2022-09-14T06:16:27.190Z,19.13
2022-09-14T06:18:57.310Z,20.58
2022-09-14T06:21:31.925Z,21.17
2022-09-14T06:23:59.499Z,20.08
2022-09-14T06:26:27.088Z,20.60
2022-09-14T06:28:54.001Z,21.02
2022-09-14T06:31:22.688Z,20.95
2022-09-14T06:33:51.706Z,21.05
2022-09-14T06:36:29.683Z,21.95
2022-09-14T06:38:59.606Z,21.27
2022-09-14T06:41:29.215Z,21.08
2022-09-14T06:43:59.118Z,19.83
2022-09-14T06:46:30.180Z,20.13
2022-09-14T06:49:10.918Z,21.75
2022-09-14T06:51:41.279Z,20.08
2022-09-14T06:54:09.715Z,19.58
2022-09-14T06:56:39.612Z,18.77
2022-09-14T06:59:09.694Z,19.33
2022-09-14T07:01:37.298Z,19.40
2022-09-14T07:04:05.440Z,19.95
2022-09-14T07:06:39.988Z,20.77
2022-09-14T07:09:07.071Z,19.83
2022-09-14T07:11:34.379Z,20.45
2022-09-14T07:14:02.212Z,18.70
2022-09-14T07:16:31.640Z,19.33
2022-09-14T07:19:02.002Z,18.65
2022-09-14T07:21:31.107Z,17.73
2022-09-14T07:23:58.674Z,17.10
2022-09-14T07:26:32.415Z,17.10
2022-09-14T07:29:03.906Z,17.02
2022-09-14T07:31:48.105Z,16.25
2022-09-14T07:34:15.409Z,16.05
2022-09-14T07:36:43.447Z,16.60
2022-09-14T07:39:14.426Z,17.75
2022-09-14T07:41:41.548Z,18.30
2022-09-14T07:44:09.768Z,17.75
2022-09-14T07:46:41.364Z,17.20
2022-09-14T07:49:09.530Z,17.17
2022-09-14T07:51:37.590Z,17.48
2022-09-14T07:54:06.772Z,15.98
2022-09-14T07:56:35.003Z,15.38
2022-09-14T07:59:24.166Z,15.07
2022-09-14T08:01:50.399Z,14.57
2022-09-14T08:04:17.596Z,15.02
2022-09-14T08:06:44.810Z,14.25
2022-09-14T08:09:11.686Z,14.48
2022-09-14T08:11:38.763Z,13.68
2022-09-14T08:14:13.073Z,13.13
2022-09-14T08:16:41.051Z,12.80
2022-09-14T08:19:17.045Z,13.73
2022-09-14T08:21:47.298Z,13.02
2022-09-14T08:24:19.213Z,14.23
2022-09-14T08:26:47.127Z,12.68
2022-09-14T08:29:18.791Z,13.15
2022-09-14T08:31:47.259Z,14.02
2022-09-14T08:34:16.062Z,13.38
2022-09-14T08:36:44.801Z,13.52
2022-09-14T08:39:14.954Z,12.88
2022-09-14T08:41:56.620Z,13.30
2022-09-14T08:44:38.774Z,13.20
2022-09-14T08:47:22.047Z,12.80
2022-09-14T08:50:00.359Z,13.40
2022-09-14T08:52:36.115Z,12.75
2022-09-14T08:55:34.597Z,13.25
2022-09-14T08:58:10.246Z,12.05
2022-09-14T09:00:54.892Z,13.38
2022-09-14T09:03:43.486Z,13.95
2022-09-14T09:06:32.732Z,13.85
2022-09-14T09:09:36.475Z,14.30
2022-09-14T09:12:04.823Z,12.77
2022-09-14T09:14:40.739Z,13.07
2022-09-14T09:17:18.751Z,12.63
2022-09-14T09:20:11.941Z,12.55
2022-09-14T09:22:44.152Z,12.50
2022-09-14T09:25:23.169Z,12.73
2022-09-14T09:27:53.080Z,13.48
2022-09-14T09:30:20.061Z,12.18
2022-09-14T09:32:46.939Z,13.15
2022-09-14T09:35:20.316Z,12.60
2022-09-14T09:37:47.219Z,12.55
2022-09-14T09:40:35.836Z,14.02
2022-09-14T09:43:06.778Z,13.10
2022-09-14T09:46:07.610Z,12.93
2022-09-14T09:48:45.836Z,11.95
2022-09-14T09:51:29.866Z,12.00
2022-09-14T09:54:24.005Z,12.70
2022-09-14T09:57:04.756Z,12.02
2022-09-14T09:59:42.334Z,13.80
2022-09-14T10:02:18.321Z,12.85
2022-09-14T10:04:57.641Z,13.93
2022-09-14T10:07:25.498Z,12.98
2022-09-14T10:10:12.405Z,12.90
2022-09-14T10:12:48.330Z,12.02
2022-09-14T10:15:20.544Z,12.68
2022-09-14T10:17:56.239Z,12.77
2022-09-14T10:20:25.263Z,12.32
2022-09-14T10:22:52.396Z,13.00
2022-09-14T10:25:21.058Z,12.80
2022-09-14T10:27:49.506Z,12.45
2022-09-14T10:30:39.720Z,12.07
2022-09-14T10:33:13.153Z,12.15
2022-09-14T10:36:11.296Z,12.20
2022-09-14T10:39:14.271Z,12.40
2022-09-14T10:42:13.005Z,12.75
2022-09-14T10:45:09.930Z,12.30
2022-09-14T10:48:13.968Z,12.95
2022-09-14T10:51:29.488Z,11.13
2022-09-14T10:54:38.076Z,12.93
2022-09-14T10:57:26.621Z,13.65
2022-09-14T11:00:12.505Z,13.40
2022-09-14T11:03:09.036Z,13.07
2022-09-14T11:06:08.237Z,12.52
2022-09-14T11:08:40.048Z,13.10
2022-09-14T11:11:46.479Z,11.73
2022-09-14T11:14:47.242Z,12.40
2022-09-14T11:17:19.819Z,12.75
2022-09-14T11:20:20.399Z,13.70
2022-09-14T11:23:18.920Z,14.63
2022-09-14T11:25:58.967Z,14.60
2022-09-14T11:28:45.145Z,13.57
2022-09-14T11:32:21.470Z,15.38
2022-09-14T11:34:59.317Z,15.45
2022-09-14T11:37:39.946Z,14.95
2022-09-14T11:40:31.606Z,14.57
2022-09-14T11:43:06.168Z,15.20
2022-09-14T11:45:59.028Z,14.10
2022-09-14T11:48:55.236Z,15.25
2022-09-14T11:51:56.361Z,14.55
2022-09-14T11:54:24.665Z,15.50
2022-09-14T11:56:58.324Z,14.32
2022-09-14T12:00:02.624Z,14.25
2022-09-14T12:02:29.780Z,13.13
2022-09-14T12:05:06.221Z,13.85
2022-09-14T12:07:47.598Z,14.20
2022-09-14T12:10:14.735Z,13.57
2022-09-14T12:12:57.343Z,13.68
2022-09-14T12:15:27.309Z,14.27
2022-09-14T12:18:24.267Z,13.95
2022-09-14T12:21:02.418Z,14.18
2022-09-14T12:23:42.626Z,13.85
2022-09-14T12:26:28.293Z,13.77
2022-09-14T12:29:03.543Z,13.65
2022-09-14T12:31:47.408Z,13.98
2022-09-14T12:34:21.617Z,13.93
2022-09-14T12:36:48.445Z,14.70
2022-09-14T12:39:34.086Z,15.05
2022-09-14T12:42:38.884Z,14.63
2022-09-14T12:46:00.166Z,12.70
2022-09-14T12:48:48.198Z,13.45
2022-09-14T12:51:27.311Z,14.90
2022-09-14T12:54:09.500Z,15.45
2022-09-14T12:57:27.678Z,14.60
2022-09-14T13:00:18.342Z,16.30
2022-09-14T13:03:17.227Z,15.82
2022-09-14T13:05:45.678Z,15.80
2022-09-14T13:08:13.361Z,15.50
2022-09-14T13:10:49.586Z,15.13
2022-09-14T13:13:24.437Z,14.25
2022-09-14T13:16:04.417Z,13.23
2022-09-14T13:18:35.903Z,13.02
2022-09-14T13:21:24.019Z,12.10
2022-09-14T13:23:51.861Z,12.75
2022-09-14T13:26:29.353Z,13.70
2022-09-14T13:28:58.324Z,13.30
2022-09-14T13:31:37.362Z,13.50
2022-09-14T13:34:05.360Z,13.60
2022-09-14T13:36:37.295Z,13.80
2022-09-14T13:39:04.848Z,12.95
2022-09-14T13:41:32.812Z,13.30
2022-09-14T13:44:00.444Z,12.98
2022-09-14T13:46:28.028Z,14.00
2022-09-14T13:48:55.788Z,12.60
2022-09-14T13:51:28.431Z,13.05
2022-09-14T13:54:17.110Z,13.57
2022-09-14T13:56:44.010Z,13.07
2022-09-14T13:59:19.002Z,13.00
2022-09-14T14:01:59.678Z,11.82
2022-09-14T14:04:36.454Z,12.40
2022-09-14T14:07:26.446Z,12.77
2022-09-14T14:09:59.597Z,13.25
2022-09-14T14:12:37.108Z,12.60
2022-09-14T14:15:26.015Z,13.30
2022-09-14T14:17:53.748Z,13.15
2022-09-14T14:20:26.873Z,13.57
2022-09-14T14:23:08.987Z,20.23
2022-09-14T14:25:45.704Z,24.35
2022-09-14T14:28:30.454Z,27.02
2022-09-14T14:31:07.803Z,26.70
2022-09-14T14:33:43.558Z,26.42
2022-09-14T14:36:10.760Z,23.70
2022-09-14T14:38:37.647Z,26.60
2022-09-14T14:41:04.932Z,27.23
2022-09-14T14:43:32.133Z,25.25
2022-09-14T14:46:02.540Z,27.02
2022-09-14T14:48:29.919Z,24.85
2022-09-14T14:50:57.012Z,25.17
2022-09-14T14:53:25.071Z,24.77
2022-09-14T14:55:53.304Z,24.67
2022-09-14T14:58:22.044Z,22.95
2022-09-14T15:00:49.733Z,25.42
2022-09-14T15:03:19.105Z,26.73
2022-09-14T15:05:48.179Z,26.40
2022-09-14T15:08:19.874Z,27.67
2022-09-14T15:10:47.092Z,26.15
2022-09-14T15:13:14.115Z,28.48
2022-09-14T15:15:43.028Z,27.77
2022-09-14T15:18:10.074Z,28.23
2022-09-14T15:20:37.113Z,28.58
2022-09-14T15:23:04.284Z,29.48
2022-09-14T15:25:31.675Z,29.23
2022-09-14T15:27:59.245Z,28.27
2022-09-14T15:30:26.238Z,26.17
2022-09-14T15:32:53.124Z,24.42
2022-09-14T15:35:20.154Z,22.85
2022-09-14T15:37:48.110Z,22.88
2022-09-14T15:40:15.358Z,20.75
2022-09-14T15:42:42.366Z,19.65
2022-09-14T15:45:09.965Z,18.52
2022-09-14T15:47:36.947Z,18.40
2022-09-14T15:50:05.941Z,17.80
2022-09-14T15:52:36.486Z,18.33
2022-09-14T15:55:06.021Z,18.15
2022-09-14T15:57:33.474Z,19.00
2022-09-14T16:00:00.427Z,18.42
2022-09-14T16:02:27.396Z,18.30
2022-09-14T16:04:54.344Z,18.40
2022-09-14T16:07:21.242Z,17.73
2022-09-14T16:09:48.145Z,18.83
2022-09-14T16:12:15.026Z,18.08
2022-09-14T16:14:42.062Z,18.83
2022-09-14T16:17:11.233Z,19.25
2022-09-14T16:19:38.157Z,20.73
2022-09-14T16:22:05.607Z,20.58
2022-09-14T16:24:33.456Z,21.42
2022-09-14T16:27:00.481Z,19.40
2022-09-14T16:29:27.454Z,17.13
2022-09-14T16:31:54.908Z,16.77
2022-09-14T16:34:28.999Z,20.13
2022-09-14T16:36:58.636Z,22.00
2022-09-14T16:39:29.426Z,25.07
2022-09-14T16:41:57.351Z,24.33
2022-09-14T16:44:26.781Z,25.80
2022-09-14T16:46:57.666Z,24.17
2022-09-14T16:49:27.823Z,24.53
2022-09-14T16:51:56.453Z,24.30
2022-09-14T16:54:25.524Z,26.13
2022-09-14T16:56:57.001Z,24.13
2022-09-14T16:59:24.557Z,23.30
2022-09-14T17:01:54.551Z,23.23
2022-09-14T17:04:27.182Z,24.33
2022-09-14T17:06:55.947Z,25.40
2022-09-14T17:09:29.702Z,25.05
2022-09-14T17:11:58.350Z,25.20
2022-09-14T17:14:29.894Z,26.97
2022-09-14T17:16:57.434Z,27.43
2022-09-14T17:19:24.988Z,27.15
2022-09-14T17:21:52.558Z,25.55
2022-09-14T17:24:21.170Z,25.95
2022-09-14T17:26:48.912Z,27.97
2022-09-14T17:29:16.099Z,28.17
2022-09-14T17:31:44.941Z,28.27
2022-09-14T17:34:15.877Z,27.80
2022-09-14T17:36:43.462Z,27.02
2022-09-14T17:39:12.456Z,28.27
2022-09-14T17:41:41.198Z,28.50
2022-09-14T17:44:12.399Z,28.27
2022-09-14T17:46:48.162Z,27.45
2022-09-14T17:49:19.119Z,26.17
2022-09-14T17:51:46.260Z,26.20
2022-09-14T17:54:13.889Z,27.42
2022-09-14T17:56:41.325Z,27.58
2022-09-14T17:59:15.008Z,27.08
2022-09-14T18:01:42.050Z,25.73
2022-09-14T18:04:14.036Z,24.60
2022-09-14T18:06:47.433Z,25.85
2022-09-14T18:09:22.204Z,26.27
2022-09-14T18:11:50.675Z,28.42
2022-09-14T18:14:18.537Z,27.98
2022-09-14T18:16:46.109Z,28.15
2022-09-14T18:19:13.370Z,26.40
2022-09-14T18:21:41.149Z,27.20
2022-09-14T18:24:09.546Z,26.38
2022-09-14T18:26:38.499Z,27.42
2022-09-14T18:29:05.481Z,27.58
2022-09-14T18:31:32.600Z,28.35
2022-09-14T18:34:00.815Z,25.00
2022-09-14T18:36:29.878Z,27.60
2022-09-14T18:38:58.723Z,24.35
2022-09-14T18:41:28.842Z,27.55
2022-09-14T18:43:55.837Z,27.88
2022-09-14T18:46:27.597Z,25.35
2022-09-14T18:48:58.265Z,28.17
2022-09-14T18:51:26.769Z,26.00
2022-09-14T18:54:04.120Z,28.20
2022-09-14T18:56:33.529Z,27.33
2022-09-14T18:59:03.116Z,27.63
2022-09-14T19:01:30.380Z,25.88
2022-09-14T19:03:57.687Z,26.80
2022-09-14T19:06:24.798Z,26.40
2022-09-14T19:08:52.042Z,26.33
2022-09-14T19:11:24.133Z,26.38
2022-09-14T19:14:01.626Z,23.57
2022-09-14T19:16:30.484Z,24.67
2022-09-14T19:18:57.939Z,24.53
2022-09-14T19:21:28.005Z,25.65
2022-09-14T19:24:00.680Z,25.45
2022-09-14T19:26:31.992Z,23.30
2022-09-14T19:29:03.455Z,23.30
2022-09-14T19:31:31.102Z,25.63
2022-09-14T19:34:06.077Z,24.10
2022-09-14T19:36:34.850Z,22.83
2022-09-14T19:39:04.092Z,23.27
2022-09-14T19:41:33.565Z,24.00
2022-09-14T19:44:02.662Z,22.92
2022-09-14T19:46:31.148Z,24.37
2022-09-14T19:48:58.838Z,24.25
2022-09-14T19:51:30.772Z,24.65
2022-09-14T19:54:00.387Z,23.85
2022-09-14T19:56:30.280Z,22.58
2022-09-14T19:59:00.618Z,23.30
2022-09-14T20:01:30.719Z,22.45
2022-09-14T20:03:58.154Z,24.75
2022-09-14T20:06:31.529Z,22.85
2022-09-14T20:09:06.741Z,23.63
2022-09-14T20:11:35.924Z,22.35
2022-09-14T20:14:05.868Z,21.20
2022-09-14T20:16:37.223Z,21.77
2022-09-14T20:19:09.538Z,24.17
2022-09-14T20:21:37.537Z,24.13
2022-09-14T20:24:17.146Z,24.27
2022-09-14T20:26:49.814Z,23.13
2022-09-14T20:29:19.158Z,25.30
2022-09-14T20:31:47.082Z,23.60
2022-09-14T20:34:16.569Z,23.90
2022-09-14T20:36:44.342Z,23.77
2022-09-14T20:39:11.337Z,23.03
2022-09-14T20:41:38.632Z,22.77
2022-09-14T20:44:05.852Z,23.47
2022-09-14T20:46:44.589Z,24.13
2022-09-14T20:49:18.401Z,24.67
2022-09-14T20:51:45.770Z,26.27
2022-09-14T20:54:15.188Z,23.70
2022-09-14T20:56:43.175Z,26.47
2022-09-14T20:59:14.861Z,24.20
2022-09-14T21:01:44.429Z,23.13
2022-09-14T21:04:18.048Z,24.60
2022-09-14T21:06:48.477Z,22.07
2022-09-14T21:09:18.144Z,22.73
2022-09-14T21:11:46.187Z,23.83
2022-09-14T21:14:15.537Z,22.97
2022-09-14T21:16:46.159Z,24.40
2022-09-14T21:19:23.046Z,22.93
2022-09-14T21:21:51.394Z,25.63
2022-09-14T21:24:20.519Z,25.30
2022-09-14T21:26:47.917Z,24.50
2022-09-14T21:29:20.834Z,22.20
2022-09-14T21:31:48.777Z,22.27
2022-09-14T21:34:16.243Z,23.90
2022-09-14T21:36:47.849Z,24.37
2022-09-14T21:39:23.086Z,23.93
2022-09-14T21:41:57.272Z,23.63
2022-09-14T21:44:30.273Z,24.77
2022-09-14T21:46:57.198Z,22.90
2022-09-14T21:49:24.175Z,24.70
2022-09-14T21:51:51.112Z,22.67
2022-09-14T21:54:18.094Z,23.87
2022-09-14T21:56:46.869Z,27.13
2022-09-14T21:59:20.648Z,26.53
2022-09-14T22:01:48.825Z,24.13
2022-09-14T22:04:21.217Z,25.23
2022-09-14T22:06:51.212Z,22.53
2022-09-14T22:09:20.996Z,23.13
2022-09-14T22:11:48.234Z,23.20
2022-09-14T22:14:18.528Z,20.50
2022-09-14T22:16:46.437Z,25.27
2022-09-14T22:19:24.067Z,22.03
2022-09-14T22:21:51.960Z,21.63
2022-09-14T22:24:38.251Z,19.10
2022-09-14T22:27:09.960Z,17.63
2022-09-14T22:29:40.614Z,19.30
2022-09-14T22:32:11.816Z,20.17
2022-09-14T22:34:39.639Z,20.07
2022-09-14T22:37:07.357Z,21.67
2022-09-14T22:39:34.364Z,21.20
2022-09-14T22:42:01.319Z,23.37
2022-09-14T22:44:28.198Z,20.43
2022-09-14T22:46:55.113Z,18.70
2022-09-14T22:49:22.093Z,20.33
2022-09-14T22:51:48.983Z,17.23
2022-09-14T22:54:15.958Z,16.40
2022-09-14T22:56:42.807Z,15.70
2022-09-14T22:59:10.731Z,17.23
2022-09-14T23:01:44.266Z,16.47
2022-09-14T23:04:13.432Z,20.70
2022-09-14T23:06:47.322Z,22.17
2022-09-14T23:09:23.097Z,19.60
2022-09-14T23:11:50.111Z,19.20
2022-09-14T23:14:17.580Z,19.13
2022-09-14T23:16:45.649Z,21.63
2022-09-14T23:19:17.734Z,19.53
2022-09-14T23:21:45.495Z,21.90
2022-09-14T23:24:12.397Z,19.57
2022-09-14T23:26:39.892Z,21.77
2022-09-14T23:29:12.313Z,21.43
2022-09-14T23:31:39.180Z,21.47
2022-09-14T23:34:06.304Z,22.03
2022-09-14T23:36:33.627Z,25.47
2022-09-14T23:39:00.709Z,27.67
2022-09-14T23:41:28.300Z,27.90
2022-09-14T23:43:55.558Z,29.60
2022-09-14T23:46:23.005Z,29.57
2022-09-14T23:48:50.287Z,31.50
2022-09-14T23:51:17.198Z,31.40
2022-09-14T23:53:44.149Z,33.17
2022-09-14T23:56:12.478Z,30.00
2022-09-14T23:58:41.843Z,30.73
